sensor_id;sensor_type;location;lat;lon;timestamp;temperature;humidity
22383;DHT22;11359;45.802;13.530;2023-02-23T00:00:18;14.80;57.40
22383;DHT22;11359;45.802;13.530;2023-02-23T00:02:53;14.80;57.50
22383;DHT22;11359;45.802;13.530;2023-02-23T00:05:21;14.80;57.50
22383;DHT22;11359;45.802;13.530;2023-02-23T00:07:47;14.70;57.40
22383;DHT22;11359;45.802;13.530;2023-02-23T00:10:14;14.80;57.50
22383;DHT22;11359;45.802;13.530;2023-02-23T00:12:41;14.70;57.40
22383;DHT22;11359;45.802;13.530;2023-02-23T00:15:08;14.70;57.40
22383;DHT22;11359;45.802;13.530;2023-02-23T00:17:35;14.70;57.40
22383;DHT22;11359;45.802;13.530;2023-02-23T00:20:07;14.70;57.40
22383;DHT22;11359;45.802;13.530;2023-02-23T00:22:38;14.70;57.30
22383;DHT22;11359;45.802;13.530;2023-02-23T00:25:08;14.70;57.30
22383;DHT22;11359;45.802;13.530;2023-02-23T00:27:36;14.60;57.20
22383;DHT22;11359;45.802;13.530;2023-02-23T00:30:10;14.60;57.20
22383;DHT22;11359;45.802;13.530;2023-02-23T00:32:36;14.60;57.90
22383;DHT22;11359;45.802;13.530;2023-02-23T00:35:02;14.60;57.30
22383;DHT22;11359;45.802;13.530;2023-02-23T00:37:28;14.50;57.20
22383;DHT22;11359;45.802;13.530;2023-02-23T00:39:55;14.50;57.30
22383;DHT22;11359;45.802;13.530;2023-02-23T00:42:22;14.50;57.30
22383;DHT22;11359;45.802;13.530;2023-02-23T00:44:48;14.50;57.40
22383;DHT22;11359;45.802;13.530;2023-02-23T00:47:14;14.50;57.30
22383;DHT22;11359;45.802;13.530;2023-02-23T00:49:40;14.50;57.40
22383;DHT22;11359;45.802;13.530;2023-02-23T00:52:10;14.50;57.40
22383;DHT22;11359;45.802;13.530;2023-02-23T00:54:35;14.50;57.40
22383;DHT22;11359;45.802;13.530;2023-02-23T00:57:01;14.40;57.30
22383;DHT22;11359;45.802;13.530;2023-02-23T00:59:27;14.40;57.30
22383;DHT22;11359;45.802;13.530;2023-02-23T01:01:54;14.50;57.40
22383;DHT22;11359;45.802;13.530;2023-02-23T01:04:20;14.50;57.40
22383;DHT22;11359;45.802;13.530;2023-02-23T01:06:47;14.40;57.30
22383;DHT22;11359;45.802;13.530;2023-02-23T01:09:15;14.50;57.30
22383;DHT22;11359;45.802;13.530;2023-02-23T01:11:52;14.40;57.30
22383;DHT22;11359;45.802;13.530;2023-02-23T01:14:17;14.40;57.20
22383;DHT22;11359;45.802;13.530;2023-02-23T01:16:43;14.50;57.30
22383;DHT22;11359;45.802;13.530;2023-02-23T01:19:09;14.40;57.20
22383;DHT22;11359;45.802;13.530;2023-02-23T01:21:38;14.40;57.10
22383;DHT22;11359;45.802;13.530;2023-02-23T01:24:05;14.40;57.20
22383;DHT22;11359;45.802;13.530;2023-02-23T01:26:34;14.40;57.10
22383;DHT22;11359;45.802;13.530;2023-02-23T01:29:03;14.40;57.20
22383;DHT22;11359;45.802;13.530;2023-02-23T01:31:29;14.40;57.80
22383;DHT22;11359;45.802;13.530;2023-02-23T01:33:57;14.40;57.10
22383;DHT22;11359;45.802;13.530;2023-02-23T01:36:23;14.40;57.10
22383;DHT22;11359;45.802;13.530;2023-02-23T01:38:50;14.40;57.10
22383;DHT22;11359;45.802;13.530;2023-02-23T01:41:20;14.40;57.10
22383;DHT22;11359;45.802;13.530;2023-02-23T01:44:00;14.40;57.00
22383;DHT22;11359;45.802;13.530;2023-02-23T01:46:30;14.40;57.00
22383;DHT22;11359;45.802;13.530;2023-02-23T01:48:58;14.40;57.00
22383;DHT22;11359;45.802;13.530;2023-02-23T01:51:30;14.40;57.00
22383;DHT22;11359;45.802;13.530;2023-02-23T01:54:14;14.40;57.00
22383;DHT22;11359;45.802;13.530;2023-02-23T01:56:44;14.30;56.90
22383;DHT22;11359;45.802;13.530;2023-02-23T01:59:13;14.40;57.00
22383;DHT22;11359;45.802;13.530;2023-02-23T02:01:41;14.40;57.00
22383;DHT22;11359;45.802;13.530;2023-02-23T02:04:08;14.30;57.00
22383;DHT22;11359;45.802;13.530;2023-02-23T02:06:36;14.40;57.00
22383;DHT22;11359;45.802;13.530;2023-02-23T02:09:12;14.40;57.00
22383;DHT22;11359;45.802;13.530;2023-02-23T02:11:41;14.30;56.90
22383;DHT22;11359;45.802;13.530;2023-02-23T02:14:17;14.30;56.90
22383;DHT22;11359;45.802;13.530;2023-02-23T02:33:54;14.40;56.90
22383;DHT22;11359;45.802;13.530;2023-02-23T02:36:40;14.40;57.00
22383;DHT22;11359;45.802;13.530;2023-02-23T02:39:27;14.30;56.90
22383;DHT22;11359;45.802;13.530;2023-02-23T02:42:11;14.40;56.90
22383;DHT22;11359;45.802;13.530;2023-02-23T02:53:09;14.30;56.90
22383;DHT22;11359;45.802;13.530;2023-02-23T02:55:39;14.40;57.00
22383;DHT22;11359;45.802;13.530;2023-02-23T02:58:09;14.40;57.00
22383;DHT22;11359;45.802;13.530;2023-02-23T03:00:45;14.30;57.00
22383;DHT22;11359;45.802;13.530;2023-02-23T03:03:41;14.30;56.90
22383;DHT22;11359;45.802;13.530;2023-02-23T03:06:34;14.40;57.00
22383;DHT22;11359;45.802;13.530;2023-02-23T03:09:36;14.40;56.90
22383;DHT22;11359;45.802;13.530;2023-02-23T03:13:16;14.30;56.90
22383;DHT22;11359;45.802;13.530;2023-02-23T03:24:55;14.30;57.00
22383;DHT22;11359;45.802;13.530;2023-02-23T03:36:53;14.30;57.00
22383;DHT22;11359;45.802;13.530;2023-02-23T03:39:44;14.30;57.00
22383;DHT22;11359;45.802;13.530;2023-02-23T03:42:33;14.30;57.00
22383;DHT22;11359;45.802;13.530;2023-02-23T03:45:21;14.30;57.00
22383;DHT22;11359;45.802;13.530;2023-02-23T03:48:09;14.30;57.00
22383;DHT22;11359;45.802;13.530;2023-02-23T03:50:58;14.30;57.00
22383;DHT22;11359;45.802;13.530;2023-02-23T03:53:50;14.30;57.00
22383;DHT22;11359;45.802;13.530;2023-02-23T03:56:39;14.30;57.00
22383;DHT22;11359;45.802;13.530;2023-02-23T03:59:28;14.30;57.00
22383;DHT22;11359;45.802;13.530;2023-02-23T04:02:15;14.30;57.00
22383;DHT22;11359;45.802;13.530;2023-02-23T04:05:04;14.30;57.00
22383;DHT22;11359;45.802;13.530;2023-02-23T04:07:50;14.30;57.00
22383;DHT22;11359;45.802;13.530;2023-02-23T04:10:41;14.30;56.90
22383;DHT22;11359;45.802;13.530;2023-02-23T04:13:30;14.30;56.90
22383;DHT22;11359;45.802;13.530;2023-02-23T04:16:05;14.30;56.90
22383;DHT22;11359;45.802;13.530;2023-02-23T04:18:34;14.30;56.90
22383;DHT22;11359;45.802;13.530;2023-02-23T04:21:00;14.30;56.90
22383;DHT22;11359;45.802;13.530;2023-02-23T04:23:27;14.30;56.80
22383;DHT22;11359;45.802;13.530;2023-02-23T04:25:54;14.30;56.90
22383;DHT22;11359;45.802;13.530;2023-02-23T04:28:21;14.30;56.80
22383;DHT22;11359;45.802;13.530;2023-02-23T04:30:48;14.30;56.80
22383;DHT22;11359;45.802;13.530;2023-02-23T04:33:14;14.30;56.70
22383;DHT22;11359;45.802;13.530;2023-02-23T04:35:40;14.30;56.70
22383;DHT22;11359;45.802;13.530;2023-02-23T04:38:06;14.30;56.70
22383;DHT22;11359;45.802;13.530;2023-02-23T04:40:32;14.30;56.70
22383;DHT22;11359;45.802;13.530;2023-02-23T04:42:58;14.30;56.70
22383;DHT22;11359;45.802;13.530;2023-02-23T04:45:24;14.30;56.70
22383;DHT22;11359;45.802;13.530;2023-02-23T04:47:50;14.30;56.60
22383;DHT22;11359;45.802;13.530;2023-02-23T04:50:17;14.30;56.60
22383;DHT22;11359;45.802;13.530;2023-02-23T04:52:43;14.30;56.60
22383;DHT22;11359;45.802;13.530;2023-02-23T04:55:21;14.30;56.60
22383;DHT22;11359;45.802;13.530;2023-02-23T04:57:47;14.30;56.60
22383;DHT22;11359;45.802;13.530;2023-02-23T05:00:14;14.30;56.60
22383;DHT22;11359;45.802;13.530;2023-02-23T05:02:41;14.30;56.60
22383;DHT22;11359;45.802;13.530;2023-02-23T05:05:07;14.30;56.60
22383;DHT22;11359;45.802;13.530;2023-02-23T05:07:34;14.30;56.60
22383;DHT22;11359;45.802;13.530;2023-02-23T05:10:00;14.30;56.60
22383;DHT22;11359;45.802;13.530;2023-02-23T05:12:26;14.30;56.60
22383;DHT22;11359;45.802;13.530;2023-02-23T05:14:51;14.30;56.60
22383;DHT22;11359;45.802;13.530;2023-02-23T05:17:17;14.30;56.60
22383;DHT22;11359;45.802;13.530;2023-02-23T05:19:43;14.30;56.60
22383;DHT22;11359;45.802;13.530;2023-02-23T05:22:09;14.30;56.60
22383;DHT22;11359;45.802;13.530;2023-02-23T05:24:38;14.30;56.60
22383;DHT22;11359;45.802;13.530;2023-02-23T05:27:07;14.30;56.60
22383;DHT22;11359;45.802;13.530;2023-02-23T05:29:33;14.30;56.60
22383;DHT22;11359;45.802;13.530;2023-02-23T05:31:59;14.30;56.50
22383;DHT22;11359;45.802;13.530;2023-02-23T05:34:24;14.30;56.50
22383;DHT22;11359;45.802;13.530;2023-02-23T05:36:50;14.20;56.40
22383;DHT22;11359;45.802;13.530;2023-02-23T05:39:16;14.20;56.40
22383;DHT22;11359;45.802;13.530;2023-02-23T05:41:42;14.20;56.50
22383;DHT22;11359;45.802;13.530;2023-02-23T05:44:08;14.20;56.50
22383;DHT22;11359;45.802;13.530;2023-02-23T05:46:34;14.20;56.50
22383;DHT22;11359;45.802;13.530;2023-02-23T05:49:01;14.20;56.50
22383;DHT22;11359;45.802;13.530;2023-02-23T05:51:28;14.20;56.60
22383;DHT22;11359;45.802;13.530;2023-02-23T05:53:54;14.20;56.60
22383;DHT22;11359;45.802;13.530;2023-02-23T05:56:20;14.20;56.60
22383;DHT22;11359;45.802;13.530;2023-02-23T05:58:47;14.30;56.60
22383;DHT22;11359;45.802;13.530;2023-02-23T06:01:13;14.30;56.60
22383;DHT22;11359;45.802;13.530;2023-02-23T06:03:39;14.20;56.60
22383;DHT22;11359;45.802;13.530;2023-02-23T06:06:05;14.30;56.70
22383;DHT22;11359;45.802;13.530;2023-02-23T06:08:31;14.30;56.60
22383;DHT22;11359;45.802;13.530;2023-02-23T06:10:57;14.30;56.60
22383;DHT22;11359;45.802;13.530;2023-02-23T06:13:23;14.30;56.70
22383;DHT22;11359;45.802;13.530;2023-02-23T06:15:48;14.20;56.60
22383;DHT22;11359;45.802;13.530;2023-02-23T06:18:14;14.30;56.60
22383;DHT22;11359;45.802;13.530;2023-02-23T06:20:41;14.20;56.60
22383;DHT22;11359;45.802;13.530;2023-02-23T06:23:07;14.20;56.60
22383;DHT22;11359;45.802;13.530;2023-02-23T06:25:33;14.20;56.60
22383;DHT22;11359;45.802;13.530;2023-02-23T06:27:58;14.20;56.60
22383;DHT22;11359;45.802;13.530;2023-02-23T06:30:24;14.30;56.70
22383;DHT22;11359;45.802;13.530;2023-02-23T06:32:49;14.30;56.70
22383;DHT22;11359;45.802;13.530;2023-02-23T06:35:15;14.30;56.70
22383;DHT22;11359;45.802;13.530;2023-02-23T06:37:41;14.30;56.70
22383;DHT22;11359;45.802;13.530;2023-02-23T06:40:08;14.30;56.70
22383;DHT22;11359;45.802;13.530;2023-02-23T06:42:34;14.30;56.70
22383;DHT22;11359;45.802;13.530;2023-02-23T06:45:02;14.30;56.70
22383;DHT22;11359;45.802;13.530;2023-02-23T06:47:28;14.30;56.70
22383;DHT22;11359;45.802;13.530;2023-02-23T06:49:54;14.30;56.70
22383;DHT22;11359;45.802;13.530;2023-02-23T06:52:20;14.30;56.70
22383;DHT22;11359;45.802;13.530;2023-02-23T06:54:46;14.30;56.70
22383;DHT22;11359;45.802;13.530;2023-02-23T06:57:12;14.30;56.70
22383;DHT22;11359;45.802;13.530;2023-02-23T06:59:38;14.40;56.70
22383;DHT22;11359;45.802;13.530;2023-02-23T07:02:04;14.30;56.70
22383;DHT22;11359;45.802;13.530;2023-02-23T07:06:57;14.40;56.80
22383;DHT22;11359;45.802;13.530;2023-02-23T07:09:23;14.40;56.80
22383;DHT22;11359;45.802;13.530;2023-02-23T07:11:49;14.40;56.70
22383;DHT22;11359;45.802;13.530;2023-02-23T07:14:16;14.40;56.80
22383;DHT22;11359;45.802;13.530;2023-02-23T07:16:42;14.40;56.80
22383;DHT22;11359;45.802;13.530;2023-02-23T07:19:08;14.40;56.80
22383;DHT22;11359;45.802;13.530;2023-02-23T07:21:33;14.40;56.80
22383;DHT22;11359;45.802;13.530;2023-02-23T07:24:00;14.40;56.80
22383;DHT22;11359;45.802;13.530;2023-02-23T07:26:27;14.50;56.90
22383;DHT22;11359;45.802;13.530;2023-02-23T07:28:53;14.50;56.90
22383;DHT22;11359;45.802;13.530;2023-02-23T07:31:19;14.50;56.90
22383;DHT22;11359;45.802;13.530;2023-02-23T07:33:44;14.50;56.90
22383;DHT22;11359;45.802;13.530;2023-02-23T07:36:10;14.50;56.90
22383;DHT22;11359;45.802;13.530;2023-02-23T07:38:36;14.50;56.90
22383;DHT22;11359;45.802;13.530;2023-02-23T07:41:02;14.50;56.90
22383;DHT22;11359;45.802;13.530;2023-02-23T07:43:29;14.60;56.90
22383;DHT22;11359;45.802;13.530;2023-02-23T07:45:58;14.60;56.90
22383;DHT22;11359;45.802;13.530;2023-02-23T07:48:25;14.60;56.90
22383;DHT22;11359;45.802;13.530;2023-02-23T07:50:50;14.60;56.90
22383;DHT22;11359;45.802;13.530;2023-02-23T07:53:16;14.60;56.90
22383;DHT22;11359;45.802;13.530;2023-02-23T07:55:42;14.60;56.90
22383;DHT22;11359;45.802;13.530;2023-02-23T07:58:11;14.60;56.90
22383;DHT22;11359;45.802;13.530;2023-02-23T08:00:39;14.60;56.90
22383;DHT22;11359;45.802;13.530;2023-02-23T08:03:06;14.60;56.90
22383;DHT22;11359;45.802;13.530;2023-02-23T08:05:32;14.60;57.00
22383;DHT22;11359;45.802;13.530;2023-02-23T08:07:58;14.60;57.00
22383;DHT22;11359;45.802;13.530;2023-02-23T08:10:24;14.60;57.00
22383;DHT22;11359;45.802;13.530;2023-02-23T08:12:50;14.70;57.70
22383;DHT22;11359;45.802;13.530;2023-02-23T08:15:16;14.70;57.10
22383;DHT22;11359;45.802;13.530;2023-02-23T08:17:42;14.70;57.10
22383;DHT22;11359;45.802;13.530;2023-02-23T08:20:08;14.70;57.00
22383;DHT22;11359;45.802;13.530;2023-02-23T08:22:34;14.70;57.00
22383;DHT22;11359;45.802;13.530;2023-02-23T08:25:00;14.70;57.00
22383;DHT22;11359;45.802;13.530;2023-02-23T08:27:27;14.70;57.00
22383;DHT22;11359;45.802;13.530;2023-02-23T08:29:56;14.80;57.10
22383;DHT22;11359;45.802;13.530;2023-02-23T08:32:22;14.80;57.10
22383;DHT22;11359;45.802;13.530;2023-02-23T08:34:47;14.80;57.10
22383;DHT22;11359;45.802;13.530;2023-02-23T08:37:13;14.80;57.10
22383;DHT22;11359;45.802;13.530;2023-02-23T08:39:39;14.80;57.10
22383;DHT22;11359;45.802;13.530;2023-02-23T08:42:04;14.80;57.10
22383;DHT22;11359;45.802;13.530;2023-02-23T08:44:30;14.90;57.20
22383;DHT22;11359;45.802;13.530;2023-02-23T08:46:56;14.90;57.20
22383;DHT22;11359;45.802;13.530;2023-02-23T08:49:23;14.90;57.20
22383;DHT22;11359;45.802;13.530;2023-02-23T08:51:50;14.90;57.20
22383;DHT22;11359;45.802;13.530;2023-02-23T08:54:15;14.90;57.10
22383;DHT22;11359;45.802;13.530;2023-02-23T08:56:45;15.00;57.10
22383;DHT22;11359;45.802;13.530;2023-02-23T08:59:13;14.90;57.10
22383;DHT22;11359;45.802;13.530;2023-02-23T09:01:38;15.00;57.10
22383;DHT22;11359;45.802;13.530;2023-02-23T09:04:05;15.00;57.10
22383;DHT22;11359;45.802;13.530;2023-02-23T09:06:31;15.00;57.10
22383;DHT22;11359;45.802;13.530;2023-02-23T09:08:57;15.10;57.10
22383;DHT22;11359;45.802;13.530;2023-02-23T09:11:23;15.10;57.20
22383;DHT22;11359;45.802;13.530;2023-02-23T09:13:49;15.10;57.10
22383;DHT22;11359;45.802;13.530;2023-02-23T09:16:15;15.10;57.00
22383;DHT22;11359;45.802;13.530;2023-02-23T09:18:41;15.10;57.00
22383;DHT22;11359;45.802;13.530;2023-02-23T09:21:12;15.10;57.00
22383;DHT22;11359;45.802;13.530;2023-02-23T09:23:44;15.10;57.10
22383;DHT22;11359;45.802;13.530;2023-02-23T09:26:15;15.10;57.10
22383;DHT22;11359;45.802;13.530;2023-02-23T09:28:43;15.10;57.10
22383;DHT22;11359;45.802;13.530;2023-02-23T09:31:15;15.10;57.00
22383;DHT22;11359;45.802;13.530;2023-02-23T09:33:44;15.10;56.90
22383;DHT22;11359;45.802;13.530;2023-02-23T09:36:16;15.10;57.00
22383;DHT22;11359;45.802;13.530;2023-02-23T09:38:48;15.20;57.10
22383;DHT22;11359;45.802;13.530;2023-02-23T09:44:23;15.20;57.10
22383;DHT22;11359;45.802;13.530;2023-02-23T09:49:58;15.30;57.10
22383;DHT22;11359;45.802;13.530;2023-02-23T09:52:30;15.30;57.10
22383;DHT22;11359;45.802;13.530;2023-02-23T09:55:00;15.40;57.20
22383;DHT22;11359;45.802;13.530;2023-02-23T09:57:37;15.40;57.10
22383;DHT22;11359;45.802;13.530;2023-02-23T10:00:21;15.40;57.10
22383;DHT22;11359;45.802;13.530;2023-02-23T10:05:46;15.50;57.10
22383;DHT22;11359;45.802;13.530;2023-02-23T10:11:51;15.60;57.10
22383;DHT22;11359;45.802;13.530;2023-02-23T10:22:08;15.70;56.90
22383;DHT22;11359;45.802;13.530;2023-02-23T10:24:38;15.70;56.90
22383;DHT22;11359;45.802;13.530;2023-02-23T10:27:14;15.70;56.90
22383;DHT22;11359;45.802;13.530;2023-02-23T10:35:25;15.80;56.70
22383;DHT22;11359;45.802;13.530;2023-02-23T10:37:52;15.90;56.70
22383;DHT22;11359;45.802;13.530;2023-02-23T10:40:22;15.90;56.60
22383;DHT22;11359;45.802;13.530;2023-02-23T10:42:50;15.90;56.60
22383;DHT22;11359;45.802;13.530;2023-02-23T10:45:20;15.90;56.50
22383;DHT22;11359;45.802;13.530;2023-02-23T10:50:20;15.90;56.50
22383;DHT22;11359;45.802;13.530;2023-02-23T10:52:48;16.00;56.40
22383;DHT22;11359;45.802;13.530;2023-02-23T10:55:30;16.00;56.40
22383;DHT22;11359;45.802;13.530;2023-02-23T10:58:16;16.00;56.50
22383;DHT22;11359;45.802;13.530;2023-02-23T11:03:31;16.00;56.40
22383;DHT22;11359;45.802;13.530;2023-02-23T11:05:58;16.00;56.30
22383;DHT22;11359;45.802;13.530;2023-02-23T11:11:16;16.10;56.30
22383;DHT22;11359;45.802;13.530;2023-02-23T11:13:47;16.10;56.30
22383;DHT22;11359;45.802;13.530;2023-02-23T11:16:15;16.20;56.30
22383;DHT22;11359;45.802;13.530;2023-02-23T11:18:51;16.20;56.20
22383;DHT22;11359;45.802;13.530;2023-02-23T11:21:27;16.20;56.20
22383;DHT22;11359;45.802;13.530;2023-02-23T11:26:40;16.20;56.20
22383;DHT22;11359;45.802;13.530;2023-02-23T11:29:14;16.30;56.20
22383;DHT22;11359;45.802;13.530;2023-02-23T11:31:47;16.30;56.20
22383;DHT22;11359;45.802;13.530;2023-02-23T11:34:26;16.30;56.20
22383;DHT22;11359;45.802;13.530;2023-02-23T11:37:03;16.30;56.20
22383;DHT22;11359;45.802;13.530;2023-02-23T11:39:29;16.40;56.20
22383;DHT22;11359;45.802;13.530;2023-02-23T11:42:14;16.40;56.20
22383;DHT22;11359;45.802;13.530;2023-02-23T11:44:41;16.40;56.20
22383;DHT22;11359;45.802;13.530;2023-02-23T11:47:16;16.50;56.20
22383;DHT22;11359;45.802;13.530;2023-02-23T11:49:44;16.50;56.20
22383;DHT22;11359;45.802;13.530;2023-02-23T11:52:17;16.50;56.10
22383;DHT22;11359;45.802;13.530;2023-02-23T11:54:51;16.50;56.10
22383;DHT22;11359;45.802;13.530;2023-02-23T11:57:22;16.60;56.10
22383;DHT22;11359;45.802;13.530;2023-02-23T11:59:49;16.60;56.10
22383;DHT22;11359;45.802;13.530;2023-02-23T12:02:29;16.60;56.10
22383;DHT22;11359;45.802;13.530;2023-02-23T12:10:17;16.70;56.00
22383;DHT22;11359;45.802;13.530;2023-02-23T12:20:50;16.80;56.00
22383;DHT22;11359;45.802;13.530;2023-02-23T12:23:23;16.80;56.00
22383;DHT22;11359;45.802;13.530;2023-02-23T12:25:57;16.80;56.00
22383;DHT22;11359;45.802;13.530;2023-02-23T12:28:35;16.80;55.90
22383;DHT22;11359;45.802;13.530;2023-02-23T12:31:13;16.80;55.90
22383;DHT22;11359;45.802;13.530;2023-02-23T12:33:43;16.80;55.90
22383;DHT22;11359;45.802;13.530;2023-02-23T12:41:38;16.90;55.80
22383;DHT22;11359;45.802;13.530;2023-02-23T12:47:35;16.90;55.70
22383;DHT22;11359;45.802;13.530;2023-02-23T12:50:26;16.90;55.70
22383;DHT22;11359;45.802;13.530;2023-02-23T12:58:49;16.90;55.70
22383;DHT22;11359;45.802;13.530;2023-02-23T13:01:44;16.90;55.70
22383;DHT22;11359;45.802;13.530;2023-02-23T13:07:36;16.90;55.60
22383;DHT22;11359;45.802;13.530;2023-02-23T13:13:14;16.90;55.60
22383;DHT22;11359;45.802;13.530;2023-02-23T13:15:48;16.90;55.50
22383;DHT22;11359;45.802;13.530;2023-02-23T13:23:41;16.90;55.40
22383;DHT22;11359;45.802;13.530;2023-02-23T13:26:31;16.90;55.30
22383;DHT22;11359;45.802;13.530;2023-02-23T13:29:06;16.90;55.30
22383;DHT22;11359;45.802;13.530;2023-02-23T13:31:37;16.90;55.30
22383;DHT22;11359;45.802;13.530;2023-02-23T13:34:08;16.90;55.30
22383;DHT22;11359;45.802;13.530;2023-02-23T13:36:36;16.90;55.20
22383;DHT22;11359;45.802;13.530;2023-02-23T13:42:10;16.90;55.20
22383;DHT22;11359;45.802;13.530;2023-02-23T13:53:06;16.80;55.10
22383;DHT22;11359;45.802;13.530;2023-02-23T13:55:44;16.80;55.10
22383;DHT22;11359;45.802;13.530;2023-02-23T13:58:34;16.80;55.10
22383;DHT22;11359;45.802;13.530;2023-02-23T14:01:09;16.80;55.10
22383;DHT22;11359;45.802;13.530;2023-02-23T14:03:41;16.80;55.10
22383;DHT22;11359;45.802;13.530;2023-02-23T14:06:13;16.80;55.10
22383;DHT22;11359;45.802;13.530;2023-02-23T14:08:42;16.80;55.10
22383;DHT22;11359;45.802;13.530;2023-02-23T14:11:10;16.80;55.10
22383;DHT22;11359;45.802;13.530;2023-02-23T14:14:01;16.80;55.10
22383;DHT22;11359;45.802;13.530;2023-02-23T14:16:28;16.80;55.00
22383;DHT22;11359;45.802;13.530;2023-02-23T14:19:11;16.80;55.00
22383;DHT22;11359;45.802;13.530;2023-02-23T14:21:44;16.80;54.90
22383;DHT22;11359;45.802;13.530;2023-02-23T14:24:24;16.80;55.00
22383;DHT22;11359;45.802;13.530;2023-02-23T14:27:19;16.80;55.00
22383;DHT22;11359;45.802;13.530;2023-02-23T14:32:41;16.80;55.00
22383;DHT22;11359;45.802;13.530;2023-02-23T14:38:08;16.80;55.00
22383;DHT22;11359;45.802;13.530;2023-02-23T14:40:42;16.80;55.00
22383;DHT22;11359;45.802;13.530;2023-02-23T14:46:17;16.80;55.00
22383;DHT22;11359;45.802;13.530;2023-02-23T14:48:54;16.80;54.90
22383;DHT22;11359;45.802;13.530;2023-02-23T14:51:29;16.80;54.90
22383;DHT22;11359;45.802;13.530;2023-02-23T14:53:58;16.80;55.00
22383;DHT22;11359;45.802;13.530;2023-02-23T14:56:24;16.80;54.90
22383;DHT22;11359;45.802;13.530;2023-02-23T14:58:52;16.80;54.90
22383;DHT22;11359;45.802;13.530;2023-02-23T15:01:35;16.80;54.90
22383;DHT22;11359;45.802;13.530;2023-02-23T15:06:31;16.80;54.90
22383;DHT22;11359;45.802;13.530;2023-02-23T15:08:57;16.80;55.00
22383;DHT22;11359;45.802;13.530;2023-02-23T15:11:23;16.80;54.90
22383;DHT22;11359;45.802;13.530;2023-02-23T15:13:50;16.80;55.00
22383;DHT22;11359;45.802;13.530;2023-02-23T15:16:20;16.80;54.90
22383;DHT22;11359;45.802;13.530;2023-02-23T15:18:48;16.80;54.90
22383;DHT22;11359;45.802;13.530;2023-02-23T15:21:19;16.80;54.90
22383;DHT22;11359;45.802;13.530;2023-02-23T15:23:49;16.80;55.00
22383;DHT22;11359;45.802;13.530;2023-02-23T15:26:26;16.80;54.90
22383;DHT22;11359;45.802;13.530;2023-02-23T15:29:04;16.80;54.90
22383;DHT22;11359;45.802;13.530;2023-02-23T15:31:30;16.80;54.90
22383;DHT22;11359;45.802;13.530;2023-02-23T15:33:56;16.80;54.80
22383;DHT22;11359;45.802;13.530;2023-02-23T15:36:30;16.80;54.80
22383;DHT22;11359;45.802;13.530;2023-02-23T15:39:02;16.70;54.80
22383;DHT22;11359;45.802;13.530;2023-02-23T15:41:36;16.70;54.80
22383;DHT22;11359;45.802;13.530;2023-02-23T15:44:25;16.80;54.80
22383;DHT22;11359;45.802;13.530;2023-02-23T15:46:58;16.70;54.80
22383;DHT22;11359;45.802;13.530;2023-02-23T15:49:28;16.70;54.80
22383;DHT22;11359;45.802;13.530;2023-02-23T15:52:07;16.70;54.80
22383;DHT22;11359;45.802;13.530;2023-02-23T15:54:42;16.70;54.80
22383;DHT22;11359;45.802;13.530;2023-02-23T15:57:20;16.70;54.80
22383;DHT22;11359;45.802;13.530;2023-02-23T15:59:48;16.70;54.80
22383;DHT22;11359;45.802;13.530;2023-02-23T16:02:16;16.60;54.70
22383;DHT22;11359;45.802;13.530;2023-02-23T16:04:45;16.60;54.70
22383;DHT22;11359;45.802;13.530;2023-02-23T16:07:22;16.60;54.70
22383;DHT22;11359;45.802;13.530;2023-02-23T16:09:54;16.60;54.70
22383;DHT22;11359;45.802;13.530;2023-02-23T16:14:59;16.60;54.70
22383;DHT22;11359;45.802;13.530;2023-02-23T16:20:09;16.50;54.70
22383;DHT22;11359;45.802;13.530;2023-02-23T16:22:37;16.50;54.70
22383;DHT22;11359;45.802;13.530;2023-02-23T16:25:14;16.50;55.40
22383;DHT22;11359;45.802;13.530;2023-02-23T16:27:42;16.50;54.80
22383;DHT22;11359;45.802;13.530;2023-02-23T16:30:32;16.50;54.80
22383;DHT22;11359;45.802;13.530;2023-02-23T16:35:51;16.40;54.70
22383;DHT22;11359;45.802;13.530;2023-02-23T16:38:26;16.40;54.70
22383;DHT22;11359;45.802;13.530;2023-02-23T16:40:53;16.30;54.70
22383;DHT22;11359;45.802;13.530;2023-02-23T16:43:19;16.30;54.70
22383;DHT22;11359;45.802;13.530;2023-02-23T16:45:45;16.30;55.40
22383;DHT22;11359;45.802;13.530;2023-02-23T16:50:44;16.30;54.80
22383;DHT22;11359;45.802;13.530;2023-02-23T16:53:11;16.20;54.80
22383;DHT22;11359;45.802;13.530;2023-02-23T16:55:44;16.20;55.00
22383;DHT22;11359;45.802;13.530;2023-02-23T16:58:18;16.20;54.90
22383;DHT22;11359;45.802;13.530;2023-02-23T17:00:45;16.20;54.80
22383;DHT22;11359;45.802;13.530;2023-02-23T17:03:20;16.10;54.80
22383;DHT22;11359;45.802;13.530;2023-02-23T17:05:47;16.10;54.90
22383;DHT22;11359;45.802;13.530;2023-02-23T17:08:13;16.10;54.90
22383;DHT22;11359;45.802;13.530;2023-02-23T17:10:40;16.00;54.80
22383;DHT22;11359;45.802;13.530;2023-02-23T17:13:12;16.00;54.80
22383;DHT22;11359;45.802;13.530;2023-02-23T17:15:41;16.00;54.90
22383;DHT22;11359;45.802;13.530;2023-02-23T17:18:15;15.90;54.90
22383;DHT22;11359;45.802;13.530;2023-02-23T17:20:43;15.90;54.90
22383;DHT22;11359;45.802;13.530;2023-02-23T17:23:11;15.90;55.60
22383;DHT22;11359;45.802;13.530;2023-02-23T17:25:37;15.90;55.00
22383;DHT22;11359;45.802;13.530;2023-02-23T17:28:03;15.80;55.00
22383;DHT22;11359;45.802;13.530;2023-02-23T17:30:32;15.80;55.10
22383;DHT22;11359;45.802;13.530;2023-02-23T17:32:58;15.80;55.10
22383;DHT22;11359;45.802;13.530;2023-02-23T17:35:24;15.80;55.20
22383;DHT22;11359;45.802;13.530;2023-02-23T17:37:50;15.80;55.20
22383;DHT22;11359;45.802;13.530;2023-02-23T17:40:19;15.70;55.20
22383;DHT22;11359;45.802;13.530;2023-02-23T17:42:54;15.70;55.20
22383;DHT22;11359;45.802;13.530;2023-02-23T17:45:20;15.70;55.20
22383;DHT22;11359;45.802;13.530;2023-02-23T17:47:47;15.70;55.30
22383;DHT22;11359;45.802;13.530;2023-02-23T17:50:13;15.60;55.20
22383;DHT22;11359;45.802;13.530;2023-02-23T17:52:39;15.60;55.20
22383;DHT22;11359;45.802;13.530;2023-02-23T17:55:05;15.60;55.30
22383;DHT22;11359;45.802;13.530;2023-02-23T17:57:31;15.50;55.30
22383;DHT22;11359;45.802;13.530;2023-02-23T17:59:58;15.50;55.40
22383;DHT22;11359;45.802;13.530;2023-02-23T18:02:23;15.50;55.40
22383;DHT22;11359;45.802;13.530;2023-02-23T18:04:51;15.50;55.50
22383;DHT22;11359;45.802;13.530;2023-02-23T18:07:19;15.40;55.40
22383;DHT22;11359;45.802;13.530;2023-02-23T18:09:48;15.40;55.50
22383;DHT22;11359;45.802;13.530;2023-02-23T18:12:16;15.40;55.50